Figari Sud-Corse Airport

LFKF · Corsica del Sud, Corsica, Francia

Storia di METAR LFKF · Figari Sud-Corse Airport

Di seguito sono riportati i METAR degli ultimi giorni. Seleziona un anno per sfogliare i METAR più vecchi, dall'anno 2007 in poi.

20 giugno 2024

Tempo Codice Tempo meteorologico Temp. Vista Base nuvolosa Vento METAR/SPECI
13:30
V
29 °C 10 km+ - 080° 080° 16 kt METAR LFKF 201130Z AUTO 08016KT 050V110 CAVOK 29/21 Q1016 BECMG 07015G25KT
13:00
V
30 °C 10 km+ - 080° 080° 15 kt METAR LFKF 201100Z AUTO 08015KT 050V110 CAVOK 30/21 Q1016 BECMG 07015G25KT
12:30
V
31 °C 10 km+ - 070° 070° 14 kt METAR LFKF 201030Z AUTO 07014KT CAVOK 31/20 Q1016 BECMG 07015G25KT
12:00
V
30 °C 10 km+ - 070° 070° 16 kt METAR LFKF 201000Z AUTO 07016KT 040V100 9999 FEW056 SCT160 30/18 Q1016 BECMG 07015G25KT
11:30
V
31 °C 10 km+ - 070° 070° 15 kt METAR LFKF 200930Z AUTO 07015KT 040V110 CAVOK 31/20 Q1016 BECMG 07015G25KT
11:00
V
29 °C 10 km+ - 070° 070° 15 kt METAR LFKF 200900Z AUTO 07015KT CAVOK 29/21 Q1016 BECMG 07015G25KT
10:30
V
26 °C 10 km+ - 080° 080° 10 kt METAR LFKF 200830Z AUTO 08010KT 050V120 9999 FEW062 26/21 Q1017 BECMG 07015G25KT
10:00
V
26 °C 10 km+ - 060° 060° 18 kt METAR LFKF 200800Z AUTO 06018KT CAVOK 26/21 Q1016 TEMPO 07025G35KT
09:30
V
25 °C 10 km+ - 050° 050° 16 kt METAR LFKF 200730Z AUTO 05016KT CAVOK 25/21 Q1017 TEMPO 07025G35KT
09:00
V
25 °C 10 km+ - 060° 060° 17 - 28 kt METAR LFKF 200700Z AUTO 06017G28KT CAVOK 25/21 Q1016 NOSIG
08:30
V
24 °C 10 km+ - 070° 070° 12 kt METAR LFKF 200630Z AUTO 07012KT 050V110 9999 FEW066 24/21 Q1016 TEMPO 07025G35KT
08:00
V
24 °C 10 km+ - 050° 050° 18 kt METAR LFKF 200600Z AUTO 05018KT 9999 FEW010 SCT160 24/21 Q1016 TEMPO 07025G35KT
07:30
V
24 °C 10 km+ - 070° 070° 11 kt METAR LFKF 200530Z AUTO 07011KT 040V120 9999 FEW008 SCT160 24/22 Q1016 TEMPO 07025G35KT
07:00
V
23 °C 10 km+ - 070° 070° 13 kt METAR LFKF 200500Z AUTO 07013KT CAVOK 23/21 Q1015 TEMPO 07025G35KT
06:30
V
23 °C 10 km+ - 060° 060° 9 kt METAR LFKF 200430Z AUTO 06009KT 030V090 CAVOK 23/21 Q1015 TEMPO 07025G35KT
06:00
V
23 °C 10 km+ - 080° 080° 8 kt METAR LFKF 200400Z AUTO 08008KT CAVOK 23/20 Q1015 TEMPO 07025G35KT
05:30
V
23 °C 10 km+ - 080° 080° 10 kt METAR LFKF 200330Z AUTO 08010KT 050V120 CAVOK 23/20 Q1016 TEMPO 07025G35KT
05:00
V
24 °C 10 km+ - 070° 070° 10 kt METAR LFKF 200300Z AUTO 07010KT CAVOK 24/20 Q1016 TEMPO 07025G35KT
04:30
V
24 °C 10 km+ - 060° 060° 11 kt METAR LFKF 200230Z AUTO 06011KT 030V100 CAVOK 24/20 Q1016
04:00
V
24 °C 10 km+ - 060° 060° 14 kt METAR LFKF 200200Z AUTO 06014KT CAVOK 24/20 Q1014
03:30
V
23 °C 10 km+ 16.000 ft 080° 080° 10 kt METAR LFKF 200130Z AUTO 08010KT 040V120 9999 FEW074 OVC160 23/20 Q1015
03:00
V
24 °C 10 km+ 15.000 ft 020° 020° 6 kt METAR LFKF 200100Z AUTO 02006KT 340V070 9999 FEW082 BKN150 BKN190 24/20 Q1016
02:30
V
24 °C 10 km+ - 050° 050° 4 kt METAR LFKF 200030Z AUTO 05004KT 010V090 9999 FEW046/// SCT200/// ///TCU 24/20 Q1017
02:00
V
24 °C 10 km+ 14.000 ft Var Var 9 kt METAR LFKF 200000Z AUTO VRB09KT 9999 FEW049/// BKN140/// ///CB 24/20 Q1018
01:30
V
24 °C 10 km+ - 060° 060° 9 kt METAR LFKF 192330Z AUTO 06009KT 360V090 CAVOK 24/20 Q1018
01:00
V
24 °C 10 km+ 15.000 ft 060° 060° 16 kt METAR LFKF 192300Z AUTO 06016KT 9999 FEW047 BKN150 24/20 Q1017
00:30
V
24 °C 10 km+ 15.000 ft 080° 080° 15 kt METAR LFKF 192230Z AUTO 08015KT 040V120 9999 FEW043 BKN150 24/21 Q1016
00:00
V
24 °C 10 km+ 5.200 ft 090° 090° 12 kt METAR LFKF 192200Z AUTO 09012KT 060V120 9999 SCT040 BKN052 BKN150 24/20 Q1016

19 giugno 2024

Tempo Codice Tempo meteorologico Temp. Vista Base nuvolosa Vento METAR/SPECI
23:30
V
24 °C 10 km+ 4.900 ft 070° 070° 18 kt METAR LFKF 192130Z AUTO 07018KT 9999 SCT036 BKN049 BKN150 24/21 Q1016 TEMPO 06018G30KT
23:00
V
24 °C 10 km+ 4.700 ft 080° 080° 14 kt METAR LFKF 192100Z AUTO 08014KT 060V120 9999 SCT036 BKN047 OVC150 24/21 Q1016 TEMPO 06018G30KT
22:30
V
24 °C 10 km+ 4.600 ft 080° 080° 15 kt METAR LFKF 192030Z AUTO 08015KT 050V110 9999 SCT035 OVC046 24/21 Q1017 TEMPO 06018G30KT
22:00
V
24 °C 10 km+ 4.300 ft 080° 080° 15 - 27 kt METAR LFKF 192000Z AUTO 08015G27KT 050V110 9999 SCT035 BKN043 OVC150 24/21 Q1016 NOSIG
21:30
V
24 °C 10 km+ 4.300 ft 070° 070° 16 kt METAR LFKF 191930Z AUTO 07016KT 9999 SCT034 OVC043 24/21 Q1016 TEMPO 06018G30KT
21:00
V
24 °C 10 km+ 4.300 ft 080° 080° 17 kt METAR LFKF 191900Z AUTO 08017KT 9999 SCT034 OVC043 24/21 Q1016 TEMPO 06018G30KT
20:30
V
24 °C 10 km+ 4.200 ft 070° 070° 20 kt METAR LFKF 191830Z AUTO 07020KT 9999 SCT033 BKN042 OVC052 24/21 Q1016 TEMPO 06018G30KT
20:00
V
25 °C 10 km+ 3.700 ft 080° 080° 16 kt METAR LFKF 191800Z AUTO 08016KT 9999 BKN037 BKN047 OVC056 25/21 Q1015 TEMPO 06018G30KT
19:30
V
25 °C 10 km+ 3.700 ft 070° 070° 18 - 31 kt METAR LFKF 191730Z AUTO 07018G31KT 9999 BKN037 BKN046 BKN052 25/21 Q1014 NOSIG
19:00
V
26 °C 10 km+ 4.300 ft 070° 070° 19 - 30 kt METAR LFKF 191700Z AUTO 07019G30KT 9999 SCT035 BKN043 BKN054 26/21 Q1015 NOSIG
18:30
V
27 °C 10 km+ 4.300 ft 060° 060° 15 kt METAR LFKF 191630Z AUTO 06015KT 9999 SCT035 BKN043 BKN049 27/22 Q1015 TEMPO 06018G30KT
18:00
V
27 °C 10 km+ - 070° 070° 15 kt METAR LFKF 191600Z AUTO 07015KT 9999 SCT039 SCT045 27/22 Q1015 TEMPO 06018G30KT
17:30
V
27 °C 10 km+ - 070° 070° 12 kt METAR LFKF 191530Z AUTO 07012KT 040V100 9999 FEW027 27/22 Q1015 TEMPO 06018G30KT
17:00
V
28 °C 10 km+ - 060° 060° 12 kt METAR LFKF 191500Z AUTO 06012KT 9999 FEW045 28/22 Q1016 TEMPO 06018G30KT
16:30
V
29 °C 10 km+ - 060° 060° 12 kt METAR LFKF 191430Z AUTO 06012KT 9999 FEW037 29/22 Q1016 TEMPO 06018G30KT
16:00
V
31 °C 10 km+ - 050° 050° 14 kt METAR LFKF 191400Z AUTO 05014KT 9999 FEW040 31/22 Q1015 TEMPO 06018G30KT
15:30
V
32 °C 10 km+ - 040° 040° 12 kt METAR LFKF 191330Z AUTO 04012KT 9999 FEW037 32/22 Q1015 TEMPO 06018G30KT
15:00
V
31 °C 10 km+ - 040° 040° 7 kt METAR LFKF 191300Z AUTO 04007KT 360V090 9999 FEW038 31/22 Q1015 TEMPO 06018G30KT
14:30
V
31 °C 10 km+ - 060° 060° 13 kt METAR LFKF 191230Z AUTO 06013KT 030V110 9999 FEW031 SCT210 31/22 Q1014 TEMPO 06018G30KT
14:00
V
31 °C 10 km+ - 060° 060° 13 kt METAR LFKF 191200Z AUTO 06013KT 030V090 9999 FEW036 31/22 Q1014 TEMPO 06018G30KT
13:30
V
31 °C 10 km+ - 050° 050° 13 kt METAR LFKF 191130Z AUTO 05013KT 020V090 9999 FEW042 31/22 Q1014 TEMPO 06018G30KT
13:00
V
31 °C 10 km+ - 060° 060° 14 kt METAR LFKF 191100Z AUTO 06014KT 9999 FEW042 31/21 Q1013 TEMPO 06018G30KT
12:30
V
32 °C 10 km+ - 050° 050° 12 kt METAR LFKF 191030Z AUTO 05012KT CAVOK 32/20 Q1013 TEMPO 06018G30KT
12:00
V
32 °C 10 km+ - 060° 060° 6 kt METAR LFKF 191000Z AUTO 06006KT 350V100 CAVOK 32/20 Q1014 NOSIG
11:30
V
30 °C 10 km+ - 040° 040° 9 kt METAR LFKF 190930Z AUTO 04009KT 9999 FEW047 30/20 Q1014 NOSIG
11:00
V
28 °C 10 km+ - 050° 050° 10 kt METAR LFKF 190900Z AUTO 05010KT 9999 FEW039 28/20 Q1014 NOSIG
10:30
V
27 °C 10 km+ - 060° 060° 11 kt METAR LFKF 190830Z AUTO 06011KT 030V090 CAVOK 27/20 Q1014 NOSIG
10:00
V
25 °C 10 km+ - 060° 060° 12 kt METAR LFKF 190800Z AUTO 06012KT CAVOK 25/20 Q1014 NOSIG
09:30
V
24 °C 10 km+ - 060° 060° 12 kt METAR LFKF 190730Z AUTO 06012KT CAVOK 24/20 Q1014 NOSIG
09:00
V
24 °C 10 km+ - 060° 060° 12 kt METAR LFKF 190700Z AUTO 06012KT CAVOK 24/20 Q1014 NOSIG
08:30
V
23 °C 10 km+ - 060° 060° 13 kt METAR LFKF 190630Z AUTO 06013KT CAVOK 23/20 Q1014 NOSIG
08:00
V
23 °C 10 km+ - 070° 070° 15 kt METAR LFKF 190600Z AUTO 07015KT 9999 FEW040 23/19 Q1013 TEMPO 06005KT
07:30
V
23 °C 10 km+ - 070° 070° 15 kt METAR LFKF 190530Z AUTO 07015KT 9999 FEW038 23/19 Q1013 TEMPO 06005KT
07:00
V
23 °C 10 km+ - 070° 070° 16 kt METAR LFKF 190500Z AUTO 07016KT 9999 SCT044 SCT050 23/19 Q1012 NOSIG
06:30
V
23 °C 10 km+ 5.200 ft 070° 070° 15 kt METAR LFKF 190430Z AUTO 07015KT 9999 SCT044 OVC052 23/19 Q1012 NOSIG
06:00
V
23 °C 10 km+ 4.900 ft 070° 070° 16 kt METAR LFKF 190400Z AUTO 07016KT 9999 BKN049 OVC058 23/19 Q1012 NOSIG
05:30
V
23 °C 10 km+ 5.400 ft 070° 070° 13 kt METAR LFKF 190330Z AUTO 07013KT 9999 OVC054 23/19 Q1013 NOSIG
05:00
V
22 °C 10 km+ 5.800 ft 070° 070° 14 kt METAR LFKF 190300Z AUTO 07014KT 9999 FEW049 BKN058 OVC074 22/18 Q1013 NOSIG
04:30
V
22 °C 10 km+ 5.800 ft 070° 070° 14 kt METAR LFKF 190230Z AUTO 07014KT 9999 BKN058 BKN070 22/18 Q1013
04:00
V
23 °C 10 km+ 7.200 ft 080° 080° 13 kt METAR LFKF 190200Z AUTO 08013KT 9999 SCT056 BKN072 23/18 Q1013
03:30
V
23 °C 10 km+ - 070° 070° 15 kt METAR LFKF 190130Z AUTO 07015KT 9999 FEW066 23/18 Q1013
03:00
V
23 °C 10 km+ - 070° 070° 15 kt METAR LFKF 190100Z AUTO 07015KT CAVOK 23/18 Q1013
02:30
V
23 °C 10 km+ - 070° 070° 15 kt METAR LFKF 190030Z AUTO 07015KT CAVOK 23/18 Q1014
02:00
V
23 °C 10 km+ - 070° 070° 15 kt METAR LFKF 190000Z AUTO 07015KT CAVOK 23/18 Q1014
01:30
V
24 °C 10 km+ - 070° 070° 15 kt METAR LFKF 182330Z AUTO 07015KT CAVOK 24/18 Q1014
01:00
V
24 °C 10 km+ - 070° 070° 11 kt METAR LFKF 182300Z AUTO 07011KT 9999 SCT054 24/17 Q1014
00:30
V
24 °C 10 km+ 6.200 ft 070° 070° 12 kt METAR LFKF 182230Z AUTO 07012KT 9999 BKN062 BKN072 24/17 Q1014
00:00
V
24 °C 10 km+ - 070° 070° 12 kt METAR LFKF 182200Z AUTO 07012KT 050V110 9999 SCT064 24/17 Q1014 BECMG 06018G28KT

18 giugno 2024

Tempo Codice Tempo meteorologico Temp. Vista Base nuvolosa Vento METAR/SPECI
23:30
V
24 °C 10 km+ - 080° 080° 14 kt METAR LFKF 182130Z AUTO 08014KT 9999 SCT066 SCT078 24/17 Q1014 BECMG 06018G28KT
23:00
V
24 °C 10 km+ - 060° 060° 14 kt METAR LFKF 182100Z AUTO 06014KT 9999 FEW062 24/17 Q1014 BECMG 06018G28KT
22:30
V
24 °C 10 km+ - 060° 060° 15 kt METAR LFKF 182030Z AUTO 06015KT 9999 FEW070 24/17 Q1013 BECMG 06018G28KT
22:00
V
24 °C 10 km+ - 060° 060° 16 kt METAR LFKF 182000Z AUTO 06016KT CAVOK 24/17 Q1013 BECMG 06018G28KT
21:30
V
25 °C 10 km+ - 060° 060° 17 kt METAR LFKF 181930Z AUTO 06017KT CAVOK 25/17 Q1013 BECMG 06018G28KT
21:00
V
25 °C 10 km+ - 070° 070° 15 kt METAR LFKF 181900Z AUTO 07015KT CAVOK 25/16 Q1013 BECMG 06018G28KT
20:30
V
26 °C 10 km+ - 070° 070° 15 kt METAR LFKF 181830Z AUTO 07015KT CAVOK 26/16 Q1013 BECMG 06018G28KT
20:00
V
26 °C 10 km+ - 070° 070° 15 - 25 kt METAR LFKF 181800Z AUTO 07015G25KT CAVOK 26/16 Q1014 NOSIG
19:30
V
27 °C 10 km+ - 060° 060° 18 kt METAR LFKF 181730Z AUTO 06018KT CAVOK 27/16 Q1014 BECMG 06018G28KT
19:00
V
27 °C 10 km+ - 070° 070° 18 kt METAR LFKF 181700Z AUTO 07018KT CAVOK 27/16 Q1014 BECMG 06018G28KT
18:30
V
28 °C 10 km+ - 060° 060° 17 kt METAR LFKF 181630Z AUTO 06017KT CAVOK 28/15 Q1014 BECMG 06018G28KT
18:00
V
29 °C 10 km+ - 070° 070° 16 kt METAR LFKF 181600Z AUTO 07016KT 040V100 CAVOK 29/14 Q1014 BECMG 06018G28KT
17:30
V
29 °C 10 km+ - 060° 060° 19 kt METAR LFKF 181530Z AUTO 06019KT 030V100 CAVOK 29/12 Q1014 BECMG 06018G28KT
17:00
V
30 °C 10 km+ - 060° 060° 16 - 30 kt METAR LFKF 181500Z AUTO 06016G30KT 040V100 CAVOK 30/12 Q1015 NOSIG
16:30
V
30 °C 10 km+ - 060° 060° 18 kt METAR LFKF 181430Z AUTO 06018KT CAVOK 30/11 Q1015 BECMG 06018G28KT
16:00
V
30 °C 10 km+ - 060° 060° 19 kt METAR LFKF 181400Z AUTO 06019KT CAVOK 30/11 Q1015 BECMG 06018G28KT
15:30
V
30 °C 10 km+ - 060° 060° 18 - 28 kt METAR LFKF 181330Z AUTO 06018G28KT 030V100 CAVOK 30/11 Q1016 NOSIG
15:00
V
30 °C 10 km+ - 050° 050° 19 - 31 kt METAR LFKF 181300Z AUTO 05019G31KT CAVOK 30/11 Q1016 NOSIG
14:30
V
30 °C 10 km+ - 060° 060° 17 kt METAR LFKF 181230Z AUTO 06017KT 030V090 CAVOK 30/11 Q1016 BECMG 06018G28KT
14:00
V
30 °C 10 km+ - 060° 060° 21 kt METAR LFKF 181200Z AUTO 06021KT CAVOK 30/12 Q1016 BECMG 06018G28KT
13:30
V
30 °C 10 km+ - 060° 060° 18 - 30 kt METAR LFKF 181130Z AUTO 06018G30KT 030V090 CAVOK 30/12 Q1016 NOSIG
13:00
V
29 °C 10 km+ - 060° 060° 18 kt METAR LFKF 181100Z AUTO 06018KT 030V090 CAVOK 29/13 Q1016 BECMG 06018G28KT
12:30
V
29 °C 10 km+ - 060° 060° 18 kt METAR LFKF 181030Z AUTO 06018KT 030V090 CAVOK 29/14 Q1016 BECMG 06018G28KT
12:00
V
29 °C 10 km+ - 060° 060° 18 kt METAR LFKF 181000Z AUTO 06018KT 020V090 CAVOK 29/14 Q1016 BECMG 06018G28KT
11:30
V
28 °C 10 km+ - 050° 050° 20 kt METAR LFKF 180930Z AUTO 05020KT CAVOK 28/14 Q1016 BECMG 06018G28KT
11:00
V
28 °C 10 km+ - 060° 060° 18 kt METAR LFKF 180900Z AUTO 06018KT 030V090 CAVOK 28/15 Q1016 BECMG 06018G28KT
10:30
V
28 °C 10 km+ - 060° 060° 17 - 29 kt METAR LFKF 180830Z AUTO 06017G29KT CAVOK 28/14 Q1017 NOSIG
10:00
V
27 °C 10 km+ - 060° 060° 16 kt METAR LFKF 180800Z AUTO 06016KT 030V100 CAVOK 27/14 Q1017 BECMG 06018G28KT
09:30
V
26 °C 10 km+ - 070° 070° 16 kt METAR LFKF 180730Z AUTO 07016KT CAVOK 26/18 Q1017 BECMG 06018G28KT
09:00
V
25 °C 10 km+ - 060° 060° 18 kt METAR LFKF 180700Z AUTO 06018KT CAVOK 25/19 Q1016 BECMG 06018G28KT
08:30
V
24 °C 10 km+ - 060° 060° 16 kt METAR LFKF 180630Z AUTO 06016KT 040V100 CAVOK 24/20 Q1016 BECMG 06018G28KT
08:00
V
23 °C 10 km+ - 080° 080° 13 kt METAR LFKF 180600Z AUTO 08013KT 050V110 CAVOK 23/20 Q1016 BECMG 06018G28KT
Segnala modifiche